createdAt,value
2023-01-09T00:00:34.064Z,17.42
2023-01-09T00:03:03.109Z,17.41
2023-01-09T00:05:30.737Z,17.42
2023-01-09T00:07:58.359Z,17.42
2023-01-09T00:10:25.937Z,17.43
2023-01-09T00:12:53.583Z,17.42
2023-01-09T00:15:21.248Z,17.43
2023-01-09T00:17:49.956Z,17.44
2023-01-09T00:20:19.024Z,17.45
2023-01-09T00:22:46.696Z,17.45
2023-01-09T00:25:14.297Z,17.46
2023-01-09T00:27:41.859Z,17.43
2023-01-09T00:30:10.285Z,17.44
2023-01-09T00:32:38.090Z,17.44
2023-01-09T00:35:06.119Z,17.43
2023-01-09T00:37:35.137Z,17.43
2023-01-09T00:40:02.897Z,17.43
2023-01-09T00:42:31.641Z,17.43
2023-01-09T00:45:00.128Z,17.44
2023-01-09T00:47:28.136Z,17.43
2023-01-09T00:49:59.403Z,17.43
2023-01-09T00:52:28.562Z,17.43
2023-01-09T00:54:58.010Z,17.43
2023-01-09T00:57:25.676Z,17.43
2023-01-09T00:59:53.297Z,17.43
2023-01-09T01:05:21.704Z,17.44
2023-01-09T01:07:49.373Z,17.45
2023-01-09T01:10:20.165Z,17.46
2023-01-09T01:12:47.833Z,17.46
2023-01-09T01:47:26.122Z,17.46
2023-01-09T01:49:53.762Z,17.46
2023-01-09T01:52:21.388Z,17.46
2023-01-09T01:54:49.005Z,17.46
2023-01-09T01:57:16.664Z,17.45
2023-01-09T01:59:50.004Z,17.45
2023-01-09T02:02:17.756Z,17.44
2023-01-09T02:04:46.841Z,17.44
2023-01-09T02:07:14.379Z,17.44
2023-01-09T02:09:41.988Z,17.43
2023-01-09T02:12:16.469Z,17.43
2023-01-09T02:14:44.102Z,17.43
2023-01-09T02:17:14.146Z,17.44
2023-01-09T02:19:55.324Z,17.43
2023-01-09T02:22:26.910Z,17.43
2023-01-09T02:24:59.843Z,17.42
2023-01-09T02:27:40.889Z,17.42
2023-01-09T02:30:27.468Z,17.41
2023-01-09T02:33:04.251Z,17.40
2023-01-09T02:35:35.008Z,17.39
2023-01-09T02:38:04.892Z,17.37
2023-01-09T02:40:34.044Z,17.37
2023-01-09T02:43:01.649Z,17.37
2023-01-09T02:45:29.245Z,17.38
2023-01-09T02:47:56.922Z,17.38
2023-01-09T02:50:28.172Z,17.38
2023-01-09T02:53:01.358Z,17.38
2023-01-09T02:55:32.187Z,17.38
2023-01-09T02:58:04.801Z,17.38
2023-01-09T03:00:35.627Z,17.38
2023-01-09T03:03:05.611Z,17.37
2023-01-09T03:05:36.657Z,17.37
2023-01-09T03:08:04.786Z,17.38
2023-01-09T03:10:34.261Z,17.38
2023-01-09T03:13:01.860Z,17.38
2023-01-09T03:47:38.952Z,17.37
2023-01-09T03:50:07.080Z,17.36
2023-01-09T03:52:36.088Z,17.36
2023-01-09T03:55:03.752Z,17.35
2023-01-09T03:57:31.325Z,17.36
2023-01-09T03:59:58.935Z,17.35
2023-01-09T04:02:26.550Z,17.36
2023-01-09T04:04:55.554Z,17.36
2023-01-09T04:07:23.313Z,17.35
2023-01-09T04:09:51.004Z,17.34
2023-01-09T04:12:18.698Z,17.35
2023-01-09T04:14:46.288Z,17.33
2023-01-09T04:46:34.495Z,17.33
2023-01-09T04:49:02.117Z,17.33
2023-01-09T04:51:29.737Z,17.33
2023-01-09T04:53:57.348Z,17.34
2023-01-09T04:56:24.973Z,17.34
2023-01-09T04:58:52.633Z,17.34
2023-01-09T05:01:20.364Z,17.34
2023-01-09T05:03:49.434Z,17.32
2023-01-09T05:06:17.017Z,17.31
2023-01-09T05:08:44.589Z,17.31
2023-01-09T05:11:12.238Z,17.30
2023-01-09T05:13:39.829Z,17.31
2023-01-09T05:30:41.509Z,17.25
2023-01-09T05:33:09.137Z,17.26
2023-01-09T05:35:36.786Z,17.27
2023-01-09T05:38:04.378Z,17.27
2023-01-09T05:40:39.554Z,17.28
2023-01-09T05:43:07.689Z,17.27
2023-01-09T05:45:35.365Z,17.28
2023-01-09T05:48:04.509Z,17.30
2023-01-09T05:50:32.147Z,17.30
2023-01-09T05:52:59.774Z,17.30
2023-01-09T05:55:27.356Z,17.31
2023-01-09T05:57:54.961Z,17.31
2023-01-09T06:00:22.872Z,17.33
2023-01-09T06:02:50.606Z,17.32
2023-01-09T06:05:19.724Z,17.33
2023-01-09T06:07:47.370Z,17.35
2023-01-09T06:10:15.490Z,17.34
2023-01-09T06:12:44.809Z,17.35
2023-01-09T06:15:12.670Z,17.36
2023-01-09T06:17:40.228Z,17.35
2023-01-09T06:20:08.195Z,17.37
2023-01-09T06:22:37.157Z,17.35
2023-01-09T06:25:04.918Z,17.36
2023-01-09T06:27:32.522Z,17.34
2023-01-09T06:30:00.153Z,17.35
2023-01-09T06:32:27.753Z,17.36
2023-01-09T06:34:55.371Z,17.37
2023-01-09T06:37:23.071Z,17.36
2023-01-09T06:39:54.056Z,17.36
2023-01-09T06:42:22.136Z,17.36
2023-01-09T06:44:49.677Z,17.37
2023-01-09T06:47:17.267Z,17.36
2023-01-09T06:49:44.853Z,17.37
2023-01-09T06:52:12.461Z,17.37
2023-01-09T06:54:40.037Z,17.35
2023-01-09T06:57:09.023Z,17.37
2023-01-09T06:59:37.002Z,17.39
2023-01-09T07:02:04.773Z,17.37
2023-01-09T07:04:32.353Z,17.38
2023-01-09T07:06:59.947Z,17.38
2023-01-09T07:09:27.626Z,17.37
2023-01-09T07:11:55.233Z,17.36
2023-01-09T07:14:24.140Z,17.36
2023-01-09T07:16:51.753Z,17.37
2023-01-09T07:19:19.399Z,17.38
2023-01-09T07:21:47.048Z,17.37
2023-01-09T07:24:14.624Z,17.38
2023-01-09T07:26:43.335Z,17.36
2023-01-09T07:29:11.080Z,17.35
2023-01-09T07:31:40.112Z,17.35
2023-01-09T07:34:07.733Z,17.36
2023-01-09T07:36:35.352Z,17.37
2023-01-09T07:39:03.027Z,17.37
2023-01-09T07:41:30.676Z,17.35
2023-01-09T07:43:58.269Z,17.35
2023-01-09T07:46:25.903Z,17.35
2023-01-09T07:48:55.045Z,17.35
2023-01-09T07:51:22.783Z,17.37
2023-01-09T07:53:50.340Z,17.37
2023-01-09T07:56:17.915Z,17.37
2023-01-09T07:58:45.533Z,17.38
2023-01-09T08:46:56.144Z,17.38
2023-01-09T08:49:23.731Z,17.39
2023-01-09T08:51:51.527Z,17.39
2023-01-09T08:54:19.511Z,17.39
2023-01-09T08:56:47.341Z,17.39
2023-01-09T08:59:15.545Z,17.39
2023-01-09T09:45:47.661Z,17.49
2023-01-09T09:48:22.234Z,17.49
2023-01-09T09:50:59.549Z,17.50
2023-01-09T09:53:27.673Z,17.48
2023-01-09T09:55:55.238Z,17.46
2023-01-09T09:58:26.038Z,17.46
2023-01-09T10:30:30.768Z,17.45
2023-01-09T10:33:02.380Z,17.46
2023-01-09T10:35:47.988Z,17.46
2023-01-09T10:38:16.577Z,17.49
2023-01-09T10:40:45.193Z,17.50
2023-01-09T10:43:13.834Z,17.49
2023-01-09T10:45:41.687Z,17.51
2023-01-09T10:48:20.616Z,17.51
2023-01-09T10:50:48.955Z,17.50
2023-01-09T10:53:17.654Z,17.41
2023-01-09T10:55:48.025Z,17.43
2023-01-09T10:58:17.528Z,17.47
2023-01-09T11:00:45.138Z,17.49
2023-01-09T11:03:14.677Z,17.52
2023-01-09T11:05:42.480Z,17.54
2023-01-09T11:08:12.660Z,17.54
2023-01-09T11:10:47.585Z,17.56
2023-01-09T11:13:15.697Z,17.56
2023-01-09T11:15:43.259Z,17.55
2023-01-09T11:18:24.493Z,17.56
2023-01-09T11:20:52.191Z,17.56
2023-01-09T11:23:29.748Z,17.55
2023-01-09T11:25:57.916Z,17.55
2023-01-09T11:28:25.658Z,17.56
2023-01-09T11:30:54.340Z,17.57
2023-01-09T11:33:24.601Z,17.56
2023-01-09T11:36:10.919Z,17.57
2023-01-09T11:38:48.854Z,17.58
2023-01-09T11:41:18.170Z,17.58
2023-01-09T11:43:45.869Z,17.60
2023-01-09T11:46:30.464Z,17.62
2023-01-09T11:48:59.946Z,17.62
2023-01-09T11:51:28.084Z,17.62
2023-01-09T11:54:22.662Z,17.63
2023-01-09T11:56:50.435Z,17.63
2023-01-09T11:59:18.424Z,17.64
2023-01-09T12:02:01.135Z,17.60
2023-01-09T12:04:31.299Z,17.65
2023-01-09T12:07:06.110Z,17.64
2023-01-09T12:09:36.340Z,17.65
2023-01-09T12:12:05.492Z,17.67
2023-01-09T12:14:38.625Z,17.66
2023-01-09T12:17:13.602Z,17.63
2023-01-09T12:19:49.281Z,17.62
2023-01-09T12:22:17.869Z,17.59
2023-01-09T12:24:53.208Z,17.60
2023-01-09T12:27:25.424Z,17.62
2023-01-09T12:29:55.999Z,17.63
2023-01-09T12:32:30.423Z,17.65
2023-01-09T12:35:03.081Z,17.67
2023-01-09T12:37:44.595Z,17.65
2023-01-09T12:40:15.007Z,17.66
2023-01-09T12:42:44.614Z,17.66
2023-01-09T12:45:18.633Z,17.65
2023-01-09T12:47:46.649Z,17.65
2023-01-09T12:50:33.064Z,17.65
2023-01-09T12:53:06.290Z,17.64
2023-01-09T12:55:34.471Z,17.65
2023-01-09T12:58:02.728Z,17.64
2023-01-09T13:00:31.693Z,17.66
2023-01-09T13:03:11.229Z,17.64
2023-01-09T13:05:41.476Z,17.67
2023-01-09T13:08:12.984Z,17.68
2023-01-09T13:10:42.098Z,17.69
2023-01-09T13:13:12.153Z,17.69
2023-01-09T13:15:40.684Z,17.67
2023-01-09T13:18:08.893Z,17.68
2023-01-09T13:20:37.697Z,17.66
2023-01-09T13:23:05.382Z,17.68
2023-01-09T13:25:36.293Z,17.69
2023-01-09T13:28:05.476Z,17.70
2023-01-09T13:30:47.946Z,17.70
2023-01-09T13:33:19.088Z,17.71
2023-01-09T13:35:57.157Z,17.72
2023-01-09T13:38:25.588Z,17.71
2023-01-09T13:41:24.845Z,17.71
2023-01-09T13:43:55.915Z,17.71
2023-01-09T13:46:23.511Z,17.71
2023-01-09T13:48:51.151Z,17.71
2023-01-09T13:51:37.961Z,17.70
2023-01-09T13:54:05.613Z,17.70
2023-01-09T13:56:34.645Z,17.70
2023-01-09T13:59:03.211Z,17.70
2023-01-09T14:01:47.511Z,17.69
2023-01-09T14:04:36.009Z,17.69
2023-01-09T14:07:14.698Z,17.69
2023-01-09T14:09:44.751Z,17.67
2023-01-09T14:12:13.901Z,17.67
2023-01-09T14:14:43.437Z,17.64
2023-01-09T14:17:16.235Z,17.66
2023-01-09T14:19:44.104Z,17.64
2023-01-09T14:22:22.029Z,17.61
2023-01-09T14:24:52.545Z,17.63
2023-01-09T14:27:38.727Z,17.63
2023-01-09T14:30:29.749Z,17.63
2023-01-09T14:32:57.908Z,17.64
2023-01-09T14:35:27.100Z,17.65
2023-01-09T14:38:01.178Z,17.65
2023-01-09T14:40:28.856Z,17.65
2023-01-09T14:42:56.465Z,17.65
2023-01-09T14:45:24.428Z,17.67
2023-01-09T14:47:54.582Z,17.66
2023-01-09T14:50:23.472Z,17.67
2023-01-09T14:52:52.000Z,17.67
2023-01-09T14:55:21.888Z,17.67
2023-01-09T14:57:52.205Z,17.67
2023-01-09T15:00:20.031Z,17.67
2023-01-09T15:02:47.782Z,17.67
2023-01-09T15:05:18.106Z,17.67
2023-01-09T15:07:46.417Z,17.66
2023-01-09T15:10:16.299Z,17.66
2023-01-09T15:12:49.023Z,17.63
2023-01-09T15:15:16.623Z,17.67
2023-01-09T15:17:45.468Z,17.67
2023-01-09T15:20:17.821Z,17.67
2023-01-09T15:22:49.221Z,17.69
2023-01-09T15:25:33.668Z,17.66
2023-01-09T15:28:20.764Z,17.66
2023-01-09T15:30:48.387Z,17.67
2023-01-09T15:33:16.893Z,17.66
2023-01-09T15:35:46.170Z,17.66
2023-01-09T15:38:13.854Z,17.66
2023-01-09T15:40:41.506Z,17.66
2023-01-09T15:43:08.102Z,17.65
2023-01-09T15:45:37.337Z,17.64
2023-01-09T15:48:21.594Z,17.63
2023-01-09T15:50:50.861Z,17.63
2023-01-09T15:53:18.924Z,17.63
2023-01-09T15:55:46.671Z,17.64
2023-01-09T15:58:26.779Z,17.64
2023-01-09T16:00:54.816Z,17.64
2023-01-09T16:03:23.083Z,17.65
2023-01-09T16:05:53.053Z,17.65
2023-01-09T16:08:30.472Z,17.64
2023-01-09T16:10:59.003Z,17.64
2023-01-09T16:13:26.806Z,17.64
2023-01-09T16:15:54.420Z,17.65
2023-01-09T16:18:23.044Z,17.65
2023-01-09T16:20:51.276Z,17.65
2023-01-09T16:23:22.496Z,17.65
2023-01-09T16:25:50.134Z,17.66
2023-01-09T16:30:52.143Z,17.65
2023-01-09T16:33:20.918Z,17.65
2023-01-09T16:35:48.484Z,17.65
2023-01-09T16:38:16.161Z,17.64
2023-01-09T16:41:14.176Z,17.65
2023-01-09T16:43:40.779Z,17.65
2023-01-09T16:46:08.464Z,17.65
2023-01-09T16:48:36.117Z,17.65
2023-01-09T16:51:03.700Z,17.65
2023-01-09T16:53:31.916Z,17.66
2023-01-09T16:56:00.834Z,17.64
2023-01-09T16:58:30.050Z,17.65
2023-01-09T17:00:57.728Z,17.65
2023-01-09T17:03:25.535Z,17.60
2023-01-09T17:05:53.460Z,17.62
2023-01-09T17:08:21.645Z,17.62
2023-01-09T17:10:49.287Z,17.62
2023-01-09T17:13:18.360Z,17.63
2023-01-09T17:15:45.987Z,17.63
2023-01-09T17:18:15.103Z,17.63
2023-01-09T17:20:42.983Z,17.65
2023-01-09T17:23:10.640Z,17.65
2023-01-09T17:25:55.564Z,17.65
2023-01-09T17:28:33.281Z,17.65
2023-01-09T17:31:01.397Z,17.64
2023-01-09T17:33:29.103Z,17.65
2023-01-09T17:35:56.790Z,17.67
2023-01-09T17:38:24.484Z,17.66
2023-01-09T17:40:52.366Z,17.66
2023-01-09T17:43:19.961Z,17.67
2023-01-09T17:45:49.029Z,17.66
2023-01-09T17:48:17.247Z,17.67
2023-01-09T17:50:44.923Z,17.66
2023-01-09T17:53:12.593Z,17.68
2023-01-09T17:55:40.390Z,17.67
2023-01-09T17:58:08.008Z,17.67
2023-01-09T18:00:36.839Z,17.66
2023-01-09T18:03:07.525Z,17.65
2023-01-09T18:05:36.968Z,17.59
2023-01-09T18:08:05.802Z,17.67
2023-01-09T18:10:33.619Z,17.68
2023-01-09T18:13:01.257Z,17.66
2023-01-09T18:15:28.839Z,17.67
2023-01-09T18:17:56.463Z,17.66
2023-01-09T18:20:26.081Z,17.65
2023-01-09T18:22:53.707Z,17.64
2023-01-09T18:25:21.345Z,17.62
2023-01-09T18:27:48.949Z,17.63
2023-01-09T18:30:16.595Z,17.64
2023-01-09T18:32:44.177Z,17.63
2023-01-09T18:35:11.814Z,17.63
2023-01-09T18:37:40.831Z,17.62
2023-01-09T18:40:08.876Z,17.61
2023-01-09T18:42:36.497Z,17.62
2023-01-09T18:45:04.251Z,17.63
2023-01-09T18:47:31.823Z,17.64
2023-01-09T18:49:59.923Z,17.66
2023-01-09T18:52:27.940Z,17.67
2023-01-09T18:54:56.888Z,17.66
2023-01-09T18:57:24.541Z,17.67
2023-01-09T18:59:52.195Z,17.67
2023-01-09T19:02:20.189Z,17.69
2023-01-09T19:04:47.846Z,17.68
2023-01-09T19:07:15.537Z,17.68
2023-01-09T19:09:43.218Z,17.68
2023-01-09T19:12:12.240Z,17.69
2023-01-09T19:14:39.860Z,17.70
2023-01-09T19:17:07.549Z,17.70
2023-01-09T19:19:35.829Z,17.69
2023-01-09T19:22:03.967Z,17.69
2023-01-09T19:24:32.971Z,17.68
2023-01-09T19:27:00.602Z,17.68
2023-01-09T19:29:31.884Z,17.65
2023-01-09T19:31:59.473Z,17.67
2023-01-09T19:34:27.326Z,17.65
2023-01-09T19:36:54.919Z,17.63
2023-01-09T19:39:22.678Z,17.65
2023-01-09T19:41:50.269Z,17.66
2023-01-09T19:44:18.980Z,17.65
2023-01-09T19:46:47.935Z,17.66
2023-01-09T19:49:15.637Z,17.66
2023-01-09T19:51:43.507Z,17.65
2023-01-09T19:54:11.314Z,17.62
2023-01-09T19:56:40.730Z,17.67
2023-01-09T19:59:08.425Z,17.66
2023-01-09T20:01:36.700Z,17.64
2023-01-09T20:04:07.864Z,17.64
2023-01-09T20:06:35.608Z,17.62
2023-01-09T20:09:04.036Z,17.62
2023-01-09T20:11:32.052Z,17.61
2023-01-09T20:13:59.719Z,17.61
2023-01-09T20:16:28.199Z,17.59
2023-01-09T20:18:57.749Z,17.59
2023-01-09T20:21:28.960Z,17.57
2023-01-09T20:23:57.094Z,17.56
2023-01-09T20:26:26.197Z,17.57
2023-01-09T20:28:53.977Z,17.57
2023-01-09T20:31:21.965Z,17.58
2023-01-09T20:33:50.749Z,17.58
2023-01-09T20:36:19.474Z,17.58
2023-01-09T20:38:48.440Z,17.57
2023-01-09T20:41:22.745Z,17.56
2023-01-09T20:43:50.524Z,17.57
2023-01-09T20:46:18.159Z,17.55
2023-01-09T20:48:45.800Z,17.55
2023-01-09T20:51:13.597Z,17.55
2023-01-09T20:53:44.405Z,17.56
2023-01-09T20:56:13.438Z,17.57
2023-01-09T20:58:42.238Z,17.57
2023-01-09T21:01:10.364Z,17.59
2023-01-09T21:03:38.364Z,17.60
2023-01-09T21:06:06.889Z,17.59
2023-01-09T21:08:34.565Z,17.59
2023-01-09T21:11:02.189Z,17.57
2023-01-09T21:13:31.347Z,17.58
2023-01-09T21:16:01.364Z,17.51
2023-01-09T21:18:29.178Z,17.58
2023-01-09T21:20:56.781Z,17.56
2023-01-09T21:23:24.409Z,17.55
2023-01-09T21:25:52.053Z,17.53
2023-01-09T21:28:20.280Z,17.53
2023-01-09T21:30:49.792Z,17.55
2023-01-09T21:33:20.703Z,17.56
2023-01-09T21:35:52.527Z,17.57
2023-01-09T21:38:20.213Z,17.57
2023-01-09T21:40:49.091Z,17.56
2023-01-09T21:43:36.998Z,17.56
2023-01-09T21:46:23.799Z,17.55
2023-01-09T21:48:51.499Z,17.56
2023-01-09T21:51:19.487Z,17.54
2023-01-09T21:53:47.057Z,17.54
2023-01-09T21:56:14.637Z,17.54
2023-01-09T21:58:44.455Z,17.53
2023-01-09T22:01:13.465Z,17.51
2023-01-09T22:03:41.067Z,17.52
2023-01-09T22:06:08.881Z,17.53
2023-01-09T22:08:36.552Z,17.53
2023-01-09T22:11:04.670Z,17.54
2023-01-09T22:13:32.299Z,17.56
2023-01-09T22:16:03.783Z,17.56
2023-01-09T22:18:33.452Z,17.56
2023-01-09T22:21:01.031Z,17.55
2023-01-09T22:23:28.687Z,17.54
2023-01-09T22:25:56.337Z,17.54
2023-01-09T22:28:24.004Z,17.54
2023-01-09T22:30:51.658Z,17.55
2023-01-09T22:33:19.276Z,17.56
2023-01-09T22:35:48.372Z,17.56
2023-01-09T22:38:15.975Z,17.56
2023-01-09T22:40:43.619Z,17.56
2023-01-09T22:43:14.247Z,17.54
2023-01-09T22:45:41.849Z,17.56
2023-01-09T22:48:09.949Z,17.57
2023-01-09T22:50:37.606Z,17.57
2023-01-09T22:53:06.671Z,17.59
2023-01-09T22:55:34.279Z,17.59
2023-01-09T22:58:02.071Z,17.59
2023-01-09T23:00:29.907Z,17.59
2023-01-09T23:02:57.592Z,17.59
2023-01-09T23:05:25.322Z,17.60
2023-01-09T23:07:53.026Z,17.59
2023-01-09T23:10:22.074Z,17.58
2023-01-09T23:12:50.328Z,17.59
